createdAt,value
2022-08-04T00:00:10.341Z,5.95
2022-08-04T00:02:53.288Z,6.18
2022-08-04T00:05:49.716Z,5.55
2022-08-04T00:08:48.794Z,6.75
2022-08-04T00:11:22.689Z,5.93
2022-08-04T00:14:03.908Z,5.57
2022-08-04T00:16:37.756Z,4.82
2022-08-04T00:19:13.030Z,5.75
2022-08-04T00:21:46.268Z,5.30
2022-08-04T00:24:15.926Z,5.80
2022-08-04T00:26:43.690Z,4.85
2022-08-04T00:29:10.980Z,5.50
2022-08-04T00:31:56.714Z,4.82
2022-08-04T00:34:28.116Z,4.68
2022-08-04T00:36:56.388Z,4.55
2022-08-04T00:39:24.765Z,4.25
2022-08-04T00:42:19.651Z,4.85
2022-08-04T00:45:11.573Z,3.50
2022-08-04T00:48:02.346Z,3.65
2022-08-04T00:50:42.774Z,3.35
2022-08-04T00:54:00.663Z,3.08
2022-08-04T00:56:43.029Z,2.78
2022-08-04T00:59:43.940Z,2.63
2022-08-04T01:02:24.936Z,2.97
2022-08-04T01:05:07.041Z,2.75
2022-08-04T01:08:16.178Z,2.75
2022-08-04T01:11:32.192Z,3.00
2022-08-04T01:14:47.371Z,3.03
2022-08-04T01:17:36.336Z,2.67
2022-08-04T01:20:07.479Z,2.47
2022-08-04T01:22:34.508Z,2.40
2022-08-04T01:25:19.800Z,2.72
2022-08-04T01:28:03.203Z,2.70
2022-08-04T01:30:33.722Z,2.65
2022-08-04T01:33:08.727Z,2.70
2022-08-04T01:35:48.380Z,2.55
2022-08-04T01:38:24.381Z,2.40
2022-08-04T01:40:57.796Z,2.42
2022-08-04T01:43:28.046Z,2.35
2022-08-04T01:45:59.748Z,2.10
2022-08-04T01:48:28.770Z,2.20
2022-08-04T01:51:04.299Z,2.47
2022-08-04T01:53:36.470Z,2.45
2022-08-04T01:56:05.691Z,2.40
2022-08-04T01:58:35.405Z,2.05
2022-08-04T02:01:04.888Z,2.72
2022-08-04T02:04:18.742Z,1.83
2022-08-04T02:06:40.721Z,2.40
2022-08-04T02:09:21.552Z,2.38
2022-08-04T02:11:59.944Z,2.60
2022-08-04T02:14:41.140Z,2.15
2022-08-04T02:17:29.608Z,2.33
2022-08-04T02:20:15.305Z,2.40
2022-08-04T02:22:52.878Z,2.35
2022-08-04T02:25:25.879Z,2.35
2022-08-04T02:28:01.272Z,2.28
2022-08-04T02:30:36.294Z,2.47
2022-08-04T02:33:04.426Z,2.20
2022-08-04T02:35:36.737Z,2.53
2022-08-04T02:38:25.362Z,2.22
2022-08-04T02:40:59.168Z,2.40
2022-08-04T02:43:51.589Z,2.63
2022-08-04T02:46:19.896Z,2.47
2022-08-04T02:48:48.583Z,2.15
2022-08-04T02:51:20.017Z,2.45
2022-08-04T02:53:52.373Z,2.70
2022-08-04T02:56:20.483Z,1.85
2022-08-04T02:58:51.986Z,2.25
2022-08-04T03:01:19.209Z,2.10
2022-08-04T03:04:01.824Z,2.20
2022-08-04T03:07:01.119Z,2.70
2022-08-04T03:09:43.716Z,2.10
2022-08-04T03:12:48.713Z,2.47
2022-08-04T03:15:46.177Z,2.45
2022-08-04T03:18:42.413Z,2.08
2022-08-04T03:21:46.643Z,2.45
2022-08-04T03:24:50.896Z,2.08
2022-08-04T03:27:45.944Z,1.85
2022-08-04T03:30:19.837Z,2.45
2022-08-04T03:33:13.459Z,1.77
2022-08-04T03:36:04.451Z,2.95
2022-08-04T03:39:09.418Z,2.03
2022-08-04T03:42:04.347Z,1.90
2022-08-04T03:44:43.831Z,1.90
2022-08-04T03:47:35.495Z,2.40
2022-08-04T03:50:29.310Z,2.00
2022-08-04T03:53:11.618Z,2.10
2022-08-04T03:56:05.589Z,1.73
2022-08-04T03:59:14.023Z,2.45
2022-08-04T04:02:06.856Z,2.17
2022-08-04T04:05:03.219Z,1.95
2022-08-04T04:08:01.359Z,2.05
2022-08-04T04:10:53.951Z,2.20
2022-08-04T04:13:30.194Z,2.10
2022-08-04T04:16:22.316Z,1.88
2022-08-04T04:19:08.288Z,1.83
2022-08-04T04:21:35.328Z,2.45
2022-08-04T04:24:26.979Z,2.00
2022-08-04T04:27:25.275Z,2.17
2022-08-04T04:30:04.094Z,2.15
2022-08-04T04:33:05.454Z,2.50
2022-08-04T04:35:45.891Z,2.60
2022-08-04T04:38:37.593Z,2.30
2022-08-04T04:41:29.526Z,2.25
2022-08-04T04:44:28.725Z,2.72
2022-08-04T04:47:11.563Z,2.85
2022-08-04T04:49:47.358Z,2.60
2022-08-04T04:52:53.919Z,3.30
2022-08-04T04:55:26.763Z,3.15
2022-08-04T04:57:59.749Z,3.67
2022-08-04T05:00:48.101Z,3.17
2022-08-04T05:03:36.425Z,3.25
2022-08-04T05:06:37.615Z,2.92
2022-08-04T05:09:30.715Z,3.13
2022-08-04T05:14:26.379Z,3.67
2022-08-04T05:15:12.150Z,3.45
2022-08-04T05:17:47.052Z,3.75
2022-08-04T05:20:23.866Z,4.57
2022-08-04T05:22:58.153Z,3.72
2022-08-04T05:25:50.056Z,3.80
2022-08-04T05:28:48.728Z,3.08
2022-08-04T05:31:31.107Z,3.28
2022-08-04T05:34:07.016Z,3.50
2022-08-04T05:36:41.291Z,3.35
2022-08-04T05:39:17.711Z,3.42
2022-08-04T05:41:54.993Z,3.30
2022-08-04T05:44:24.833Z,3.65
2022-08-04T05:46:55.623Z,3.70
2022-08-04T05:49:33.850Z,2.90
2022-08-04T05:52:03.225Z,3.35
2022-08-04T05:54:33.011Z,3.33
2022-08-04T05:57:03.025Z,3.15
2022-08-04T05:59:32.189Z,3.88
2022-08-04T06:02:04.121Z,3.08
2022-08-04T06:04:37.485Z,3.60
2022-08-04T06:07:04.960Z,3.30
2022-08-04T06:09:32.753Z,3.55
2022-08-04T06:12:04.344Z,4.03
2022-08-04T06:14:42.521Z,3.67
2022-08-04T06:18:32.816Z,4.40
2022-08-04T06:20:19.910Z,4.85
2022-08-04T06:22:55.513Z,3.42
2022-08-04T06:25:28.111Z,3.08
2022-08-04T06:27:56.302Z,3.05
2022-08-04T06:30:26.949Z,3.15
2022-08-04T06:33:04.035Z,3.20
2022-08-04T06:35:33.684Z,2.88
2022-08-04T06:38:02.984Z,3.25
2022-08-04T06:40:33.780Z,2.60
2022-08-04T06:43:04.383Z,3.15
2022-08-04T06:45:34.616Z,2.50
2022-08-04T06:48:03.403Z,3.10
2022-08-04T06:51:29.250Z,2.90
2022-08-04T06:53:19.377Z,2.60
2022-08-04T06:55:48.791Z,3.20
2022-08-04T06:58:19.412Z,3.15
2022-08-04T07:00:48.667Z,2.58
2022-08-04T07:03:19.319Z,2.67
2022-08-04T07:05:48.416Z,2.78
2022-08-04T07:08:15.945Z,2.35
2022-08-04T07:10:45.310Z,2.97
2022-08-04T07:13:13.799Z,2.97
2022-08-04T07:15:44.205Z,2.83
2022-08-04T07:18:11.690Z,2.65
2022-08-04T07:20:43.698Z,2.92
2022-08-04T07:23:17.241Z,2.75
2022-08-04T07:26:11.942Z,2.60
2022-08-04T07:28:32.353Z,2.42
2022-08-04T07:31:31.973Z,2.33
2022-08-04T07:34:21.034Z,2.58
2022-08-04T07:36:53.014Z,3.17
2022-08-04T07:39:28.245Z,2.10
2022-08-04T07:42:02.238Z,3.63
2022-08-04T07:44:35.017Z,2.80
2022-08-04T07:47:04.555Z,3.28
2022-08-04T07:49:54.335Z,2.95
2022-08-04T07:52:20.677Z,3.25
2022-08-04T07:54:50.570Z,3.20
2022-08-04T07:57:41.556Z,3.35
2022-08-04T08:00:08.586Z,2.65
2022-08-04T08:02:48.489Z,2.60
2022-08-04T08:05:36.969Z,2.72
2022-08-04T08:08:24.165Z,3.25
2022-08-04T08:10:51.916Z,2.50
2022-08-04T08:13:19.877Z,2.35
2022-08-04T08:15:47.510Z,2.90
2022-08-04T08:18:17.701Z,3.22
2022-08-04T08:20:46.717Z,2.78
2022-08-04T08:23:14.559Z,5.57
2022-08-04T08:25:41.935Z,2.63
2022-08-04T08:28:16.272Z,3.05
2022-08-04T08:30:52.561Z,2.25
2022-08-04T08:33:22.753Z,2.95
2022-08-04T08:35:57.040Z,2.25
2022-08-04T08:39:07.516Z,2.38
2022-08-04T08:41:46.588Z,2.72
2022-08-04T08:44:58.108Z,2.17
2022-08-04T08:48:06.649Z,2.55
2022-08-04T08:50:53.308Z,3.25
2022-08-04T08:53:33.750Z,2.13
2022-08-04T08:56:31.333Z,2.38
2022-08-04T08:59:17.863Z,2.30
2022-08-04T09:02:23.443Z,2.13
2022-08-04T09:05:12.567Z,2.55
2022-08-04T09:07:58.339Z,2.45
2022-08-04T09:10:34.099Z,1.90
2022-08-04T09:13:06.277Z,2.17
2022-08-04T09:15:36.349Z,2.28
2022-08-04T09:18:07.835Z,2.60
2022-08-04T09:20:39.498Z,2.40
2022-08-04T09:23:33.581Z,2.40
2022-08-04T09:26:22.146Z,1.90
2022-08-04T09:29:07.510Z,2.15
2022-08-04T09:32:07.424Z,2.50
2022-08-04T09:35:03.089Z,2.17
2022-08-04T09:38:03.763Z,2.58
2022-08-04T09:41:33.925Z,2.08
2022-08-04T09:44:50.409Z,2.15
2022-08-04T09:47:23.477Z,2.25
2022-08-04T09:49:58.531Z,2.00
2022-08-04T09:52:48.940Z,2.05
2022-08-04T09:55:16.042Z,2.10
2022-08-04T09:57:58.226Z,1.75
2022-08-04T10:00:40.405Z,1.83
2022-08-04T10:03:12.780Z,1.70
2022-08-04T10:06:01.458Z,1.88
2022-08-04T10:08:57.164Z,2.15
2022-08-04T10:11:57.454Z,1.95
2022-08-04T10:14:36.762Z,2.13
2022-08-04T10:17:09.613Z,1.73
2022-08-04T10:19:40.227Z,2.13
2022-08-04T10:22:28.899Z,1.70
2022-08-04T10:25:37.443Z,1.88
2022-08-04T10:30:57.763Z,2.17
2022-08-04T10:33:31.023Z,1.67
2022-08-04T10:36:04.922Z,2.72
2022-08-04T10:38:40.670Z,1.90
2022-08-04T10:41:35.904Z,1.77
2022-08-04T10:44:24.620Z,1.60
2022-08-04T10:46:57.370Z,1.80
2022-08-04T10:49:35.388Z,1.60
2022-08-04T10:52:23.265Z,1.70
2022-08-04T10:55:03.860Z,1.48
2022-08-04T10:57:34.010Z,2.10
2022-08-04T11:00:11.877Z,2.08
2022-08-04T11:03:01.873Z,1.60
2022-08-04T11:05:44.003Z,4.60
2022-08-04T11:08:20.555Z,3.35
2022-08-04T11:10:59.207Z,3.70
2022-08-04T11:13:46.813Z,1.38
2022-08-04T11:16:24.684Z,1.33
2022-08-04T11:18:57.854Z,1.75
2022-08-04T11:24:11.927Z,1.70
2022-08-04T11:26:50.083Z,1.50
2022-08-04T11:29:58.725Z,1.58
2022-08-04T11:32:46.054Z,1.67
2022-08-04T11:35:32.701Z,1.60
2022-08-04T11:38:11.606Z,1.35
2022-08-04T11:41:02.461Z,1.60
2022-08-04T11:44:01.469Z,1.40
2022-08-04T11:46:32.198Z,1.60
2022-08-04T11:49:08.455Z,1.90
2022-08-04T11:51:36.587Z,1.58
2022-08-04T11:54:04.684Z,1.45
2022-08-04T11:56:36.743Z,1.67
2022-08-04T11:59:08.197Z,1.30
2022-08-04T12:01:47.136Z,1.67
2022-08-04T12:04:28.549Z,1.50
2022-08-04T12:07:30.515Z,1.50
2022-08-04T12:10:41.947Z,1.70
2022-08-04T12:13:28.331Z,1.30
2022-08-04T12:16:10.665Z,2.17
2022-08-04T12:19:10.050Z,1.67
2022-08-04T12:21:50.316Z,1.90
2022-08-04T12:24:42.877Z,2.05
2022-08-04T12:27:17.242Z,1.55
2022-08-04T12:30:57.336Z,1.52
2022-08-04T12:32:48.238Z,1.80
2022-08-04T12:35:25.380Z,1.92
2022-08-04T12:38:12.538Z,1.70
2022-08-04T12:40:50.382Z,2.15
2022-08-04T12:43:26.360Z,1.70
2022-08-04T12:46:03.698Z,1.80
2022-08-04T12:48:32.292Z,1.77
2022-08-04T12:51:00.863Z,1.65
2022-08-04T12:53:51.244Z,1.60
2022-08-04T12:56:27.683Z,1.70
2022-08-04T12:59:23.366Z,1.77
2022-08-04T13:02:08.645Z,1.73
2022-08-04T13:04:42.646Z,1.77
2022-08-04T13:07:15.631Z,1.90
2022-08-04T13:09:43.459Z,1.63
2022-08-04T13:12:16.528Z,2.00
2022-08-04T13:14:45.539Z,1.60
2022-08-04T13:17:13.207Z,1.80
2022-08-04T13:19:47.850Z,1.90
2022-08-04T13:22:29.192Z,1.50
2022-08-04T13:26:41.276Z,2.15
2022-08-04T13:27:48.723Z,1.70
2022-08-04T13:30:25.740Z,1.52
2022-08-04T13:33:00.061Z,1.50
2022-08-04T13:35:54.156Z,1.50
2022-08-04T13:38:18.076Z,1.60
2022-08-04T13:40:46.793Z,1.42
2022-08-04T13:44:16.696Z,1.58
2022-08-04T13:46:28.058Z,1.60
2022-08-04T13:49:25.817Z,1.80
2022-08-04T13:51:58.469Z,1.60
2022-08-04T13:54:35.400Z,1.50
2022-08-04T13:57:24.131Z,1.60
2022-08-04T13:59:59.179Z,1.63
2022-08-04T14:02:34.561Z,1.50
2022-08-04T14:05:18.052Z,1.52
2022-08-04T14:07:50.256Z,1.60
2022-08-04T14:10:17.623Z,1.50
2022-08-04T14:12:49.794Z,1.45
2022-08-04T14:16:00.962Z,1.48
2022-08-04T14:18:27.642Z,2.35
2022-08-04T14:20:59.965Z,2.95
2022-08-04T14:23:33.198Z,2.40
2022-08-04T14:26:00.857Z,3.00
2022-08-04T14:29:01.077Z,3.38
2022-08-04T14:31:22.188Z,2.70
2022-08-04T14:34:02.664Z,2.70
2022-08-04T14:37:13.305Z,3.40
2022-08-04T14:39:42.109Z,2.88
2022-08-04T14:42:55.048Z,2.90
2022-08-04T14:45:54.070Z,3.35
2022-08-04T14:48:22.980Z,3.58
2022-08-04T14:50:51.065Z,3.55
2022-08-04T14:53:20.281Z,3.20
2022-08-04T14:55:53.217Z,3.25
2022-08-04T14:58:36.644Z,2.58
2022-08-04T15:01:10.489Z,2.88
2022-08-04T15:03:49.895Z,3.70
2022-08-04T15:06:31.067Z,3.28
2022-08-04T15:09:06.958Z,3.55
2022-08-04T15:11:41.445Z,3.20
2022-08-04T15:14:18.570Z,3.75
2022-08-04T15:16:58.315Z,3.55
2022-08-04T15:19:26.038Z,3.28
2022-08-04T15:21:54.649Z,3.28
2022-08-04T15:24:21.768Z,2.83
2022-08-04T15:26:52.097Z,3.55
2022-08-04T15:29:27.484Z,3.42
2022-08-04T15:32:07.864Z,3.83
2022-08-04T15:34:49.240Z,2.72
2022-08-04T15:37:25.314Z,2.83
2022-08-04T15:40:12.118Z,4.03
2022-08-04T15:43:08.769Z,2.70
2022-08-04T15:46:37.394Z,2.45
2022-08-04T15:48:38.067Z,2.70
2022-08-04T15:51:14.589Z,2.58
2022-08-04T15:54:03.713Z,2.90
2022-08-04T15:56:29.948Z,2.63
2022-08-04T15:58:58.505Z,3.25
2022-08-04T16:01:27.546Z,3.53
2022-08-04T16:03:59.766Z,2.88
2022-08-04T16:06:29.835Z,3.08
2022-08-04T16:08:59.624Z,3.55
2022-08-04T16:11:31.561Z,3.13
2022-08-04T16:13:59.378Z,3.13
2022-08-04T16:16:49.957Z,3.30
2022-08-04T16:19:22.985Z,3.10
2022-08-04T16:21:50.966Z,2.90
2022-08-04T16:24:22.677Z,3.33
2022-08-04T16:26:57.249Z,3.35
2022-08-04T16:29:29.104Z,3.35
2022-08-04T16:32:05.562Z,3.70
2022-08-04T16:34:55.477Z,3.40
2022-08-04T16:37:25.524Z,3.70
2022-08-04T16:40:34.406Z,4.22
2022-08-04T16:43:18.420Z,3.15
2022-08-04T16:45:51.790Z,3.35
2022-08-04T16:48:21.275Z,3.28
2022-08-04T16:51:04.688Z,2.42
2022-08-04T16:53:53.617Z,3.33
2022-08-04T16:56:33.546Z,2.70
2022-08-04T16:59:09.618Z,2.40
2022-08-04T17:01:38.754Z,2.55
2022-08-04T17:04:06.854Z,2.72
2022-08-04T17:06:37.463Z,2.70
2022-08-04T17:09:06.817Z,2.35
2022-08-04T17:11:33.994Z,3.05
2022-08-04T17:14:05.417Z,2.58
2022-08-04T17:16:36.633Z,2.97
2022-08-04T17:19:05.811Z,2.30
2022-08-04T17:21:36.203Z,1.92
2022-08-04T17:24:15.932Z,2.22
2022-08-04T17:26:54.139Z,2.05
2022-08-04T17:29:44.519Z,1.92
2022-08-04T17:32:21.539Z,2.00
2022-08-04T17:34:50.770Z,2.10
2022-08-04T17:37:39.354Z,2.15
2022-08-04T17:40:10.427Z,1.90
2022-08-04T17:42:40.226Z,2.47
2022-08-04T17:50:36.771Z,2.30
2022-08-04T17:53:13.008Z,2.20
2022-08-04T17:55:47.599Z,2.17
2022-08-04T17:58:23.014Z,2.03
2022-08-04T18:03:51.577Z,2.33
2022-08-04T18:06:22.113Z,2.20
2022-08-04T18:08:58.158Z,1.90
2022-08-04T18:11:29.492Z,2.10
2022-08-04T18:14:10.067Z,2.40
2022-08-04T18:16:46.409Z,1.73
2022-08-04T18:19:19.111Z,2.08
2022-08-04T18:21:59.448Z,2.10
2022-08-04T18:24:35.383Z,2.45
2022-08-04T18:27:18.427Z,2.63
2022-08-04T18:29:50.265Z,2.65
2022-08-04T18:32:33.824Z,2.75
2022-08-04T18:35:05.089Z,2.33
2022-08-04T18:38:03.680Z,2.47
2022-08-04T18:40:29.937Z,2.28
2022-08-04T18:43:03.494Z,2.40
2022-08-04T18:45:34.535Z,3.75
2022-08-04T18:48:14.130Z,3.05
2022-08-04T18:51:09.367Z,2.40
2022-08-04T18:53:35.262Z,2.15
2022-08-04T18:56:06.409Z,2.10
2022-08-04T18:58:52.555Z,1.95
2022-08-04T19:01:20.322Z,1.90
2022-08-04T19:03:57.782Z,1.98
2022-08-04T19:06:26.096Z,2.00
2022-08-04T19:08:54.758Z,2.03
2022-08-04T19:11:37.056Z,1.70
2022-08-04T19:14:13.203Z,2.40
2022-08-04T19:16:45.710Z,2.33
2022-08-04T19:19:14.136Z,2.10
2022-08-04T19:22:01.263Z,2.30
2022-08-04T19:24:34.457Z,2.10
2022-08-04T19:27:06.347Z,2.53
2022-08-04T19:29:41.081Z,2.10
2022-08-04T19:32:13.787Z,1.83
2022-08-04T19:34:46.002Z,1.90
2022-08-04T19:37:56.915Z,2.38
2022-08-04T19:40:08.278Z,2.63
2022-08-04T19:42:37.241Z,2.60
2022-08-04T19:45:06.226Z,2.53
2022-08-04T19:48:17.257Z,3.17
2022-08-04T19:50:23.686Z,3.80
2022-08-04T19:52:52.795Z,4.00
2022-08-04T19:55:36.721Z,3.90
2022-08-04T19:58:07.373Z,5.30
2022-08-04T20:00:37.452Z,3.92
2022-08-04T20:03:11.654Z,6.00
2022-08-04T20:05:54.322Z,5.60
2022-08-04T20:08:28.810Z,5.50
2022-08-04T20:10:57.857Z,6.38
2022-08-04T20:13:30.956Z,5.93
2022-08-04T20:16:28.219Z,5.78
2022-08-04T20:19:02.867Z,6.00
2022-08-04T20:21:53.936Z,7.22
2022-08-04T20:24:38.717Z,6.70
2022-08-04T20:27:07.823Z,6.70
2022-08-04T20:29:41.111Z,7.63
2022-08-04T20:32:10.881Z,7.00
2022-08-04T20:34:40.181Z,6.95
2022-08-04T20:37:10.148Z,7.82
2022-08-04T20:39:38.211Z,7.18
2022-08-04T20:42:06.584Z,8.05
2022-08-04T20:44:33.882Z,6.78
2022-08-04T20:47:01.617Z,7.80
2022-08-04T20:49:34.906Z,7.70
2022-08-04T20:52:14.774Z,7.03
2022-08-04T20:54:48.486Z,7.45
2022-08-04T20:57:16.848Z,7.35
2022-08-04T20:59:50.346Z,8.95
2022-08-04T21:02:27.630Z,7.75
2022-08-04T21:04:54.871Z,7.82
2022-08-04T21:07:24.137Z,7.45
2022-08-04T21:09:52.048Z,7.55
2022-08-04T21:12:28.322Z,8.20
2022-08-04T21:15:00.081Z,8.00
2022-08-04T21:17:58.150Z,8.45
2022-08-04T21:20:27.307Z,8.77
2022-08-04T21:22:55.473Z,7.97
2022-08-04T21:25:26.847Z,9.43
2022-08-04T21:27:53.921Z,8.52
2022-08-04T21:33:08.181Z,9.27
2022-08-04T21:35:39.057Z,9.65
2022-08-04T21:38:16.350Z,8.88
2022-08-04T21:40:53.654Z,9.98
2022-08-04T21:43:23.496Z,9.80
2022-08-04T21:48:27.294Z,9.38
2022-08-04T21:50:55.247Z,8.77
2022-08-04T21:53:22.813Z,9.15
2022-08-04T21:56:04.482Z,10.25
2022-08-04T21:58:37.491Z,10.27
2022-08-04T22:01:12.991Z,10.02
2022-08-04T22:03:53.442Z,10.73
2022-08-04T22:06:28.297Z,11.10
2022-08-04T22:08:57.489Z,10.45
2022-08-04T22:11:49.081Z,11.05
2022-08-04T22:14:27.401Z,9.95
2022-08-04T22:19:40.855Z,10.27
2022-08-04T22:22:25.054Z,9.73
2022-08-04T22:24:58.816Z,10.50
2022-08-04T22:27:55.323Z,10.23
2022-08-04T22:30:23.752Z,9.73
2022-08-04T22:32:51.272Z,10.30
2022-08-04T22:35:36.334Z,9.70
2022-08-04T22:38:24.395Z,9.60
2022-08-04T22:41:03.116Z,9.70
2022-08-04T22:43:32.440Z,9.73
2022-08-04T22:46:03.503Z,9.70
2022-08-04T22:48:35.922Z,8.48
2022-08-04T22:51:04.577Z,7.95
2022-08-04T22:53:33.004Z,8.25
2022-08-04T22:56:10.016Z,8.20
2022-08-04T22:58:40.805Z,7.65
2022-08-04T23:01:15.382Z,7.72
2022-08-04T23:03:51.009Z,7.70
2022-08-04T23:06:25.352Z,7.68
2022-08-04T23:08:53.234Z,6.57
2022-08-04T23:11:20.798Z,7.18
2022-08-04T23:13:50.424Z,7.65
2022-08-04T23:16:19.025Z,6.60
2022-08-04T23:18:48.233Z,6.57
2022-08-04T23:21:24.267Z,5.88
2022-08-04T23:24:01.990Z,6.07
2022-08-04T23:26:30.632Z,4.97
2022-08-04T23:28:58.477Z,4.40
2022-08-04T23:31:41.352Z,5.00
2022-08-04T23:34:13.814Z,4.10
2022-08-04T23:36:45.735Z,4.93
2022-08-04T23:39:14.795Z,4.20
2022-08-04T23:41:55.182Z,4.40
2022-08-04T23:44:26.668Z,3.60
2022-08-04T23:46:58.413Z,3.80
2022-08-04T23:49:43.562Z,3.75
2022-08-04T23:52:28.107Z,3.30
2022-08-04T23:54:58.868Z,3.13
2022-08-04T23:57:31.664Z,2.90
